Terminal Aerodrome Forecast
Issued by NWS

Home | Current Version | Previous Version | Text Only | Print | Product List | Glossary Off
Versions: 1 2 3 4 5 6 7 8 9 10 11 12 13 14 15 16 17 18 19 20 21 22

000
FTUS43 KMPX 251500 AAA
TAFAXN
TAF AMD
KAXN 251507Z 2515/2612 22005KT P6SM OVC012
     FM251700 33007KT P6SM SCT012 OVC100
     FM260200 36008KT 5SM BR BKN006 OVC012=

USA.gov is the U.S. government's official web portal to all federal, state and local government web resources and services.